createdAt,value
2017-07-27T00:01:23.498Z,93.30
2017-07-27T00:03:50.946Z,93.30
2017-07-27T00:06:18.435Z,93.30
2017-07-27T00:08:45.909Z,93.20
2017-07-27T00:11:13.356Z,93.20
2017-07-27T00:13:40.823Z,93.00
2017-07-27T00:16:08.278Z,93.00
2017-07-27T00:18:35.738Z,92.90
2017-07-27T00:21:03.224Z,93.00
2017-07-27T00:23:30.682Z,92.80
2017-07-27T00:25:58.907Z,92.40
2017-07-27T00:28:26.388Z,92.40
2017-07-27T00:30:53.851Z,92.60
2017-07-27T00:33:21.320Z,92.50
2017-07-27T00:35:48.803Z,92.50
2017-07-27T00:38:16.260Z,92.50
2017-07-27T00:40:43.776Z,92.70
2017-07-27T00:43:11.254Z,92.70
2017-07-27T00:45:39.474Z,92.40
2017-07-27T00:48:07.004Z,92.40
2017-07-27T00:50:34.477Z,92.40
2017-07-27T00:53:01.940Z,92.10
2017-07-27T00:55:29.401Z,91.80
2017-07-27T00:57:56.872Z,91.90
2017-07-27T01:00:24.345Z,91.70
2017-07-27T01:02:51.830Z,91.60
2017-07-27T01:05:20.072Z,91.60
2017-07-27T01:07:47.661Z,91.50
2017-07-27T01:10:15.899Z,91.40
2017-07-27T01:12:43.379Z,91.40
2017-07-27T01:15:11.618Z,91.60
2017-07-27T01:17:39.079Z,91.60
2017-07-27T01:20:06.579Z,91.60
2017-07-27T01:22:34.804Z,91.40
2017-07-27T01:25:02.269Z,91.40
2017-07-27T01:27:29.767Z,91.40
2017-07-27T01:29:57.991Z,91.50
2017-07-27T01:32:25.452Z,91.50
2017-07-27T01:34:52.936Z,91.50
2017-07-27T01:37:20.391Z,91.40
2017-07-27T01:39:47.990Z,91.50
2017-07-27T01:42:15.574Z,91.50
2017-07-27T01:44:43.036Z,91.70
2017-07-27T01:47:10.507Z,91.70
2017-07-27T01:49:38.000Z,91.60
2017-07-27T01:52:06.231Z,91.50
2017-07-27T01:54:33.697Z,91.50
2017-07-27T01:57:01.184Z,91.60
2017-07-27T01:59:29.422Z,92.20
2017-07-27T02:01:56.874Z,91.80
2017-07-27T02:04:24.402Z,91.70
2017-07-27T02:06:51.862Z,91.70
2017-07-27T02:09:20.376Z,91.60
2017-07-27T02:11:47.898Z,91.80
2017-07-27T02:14:15.347Z,91.70
2017-07-27T02:16:42.827Z,91.50
2017-07-27T02:19:10.303Z,91.50
2017-07-27T02:21:37.763Z,91.50
2017-07-27T02:24:05.224Z,91.40
2017-07-27T02:26:32.709Z,91.50
2017-07-27T02:29:00.183Z,91.50
2017-07-27T02:31:28.423Z,91.60
2017-07-27T02:33:55.915Z,91.60
2017-07-27T02:36:23.379Z,91.60
2017-07-27T02:38:50.852Z,91.50
2017-07-27T02:41:18.380Z,91.50
2017-07-27T02:43:46.641Z,91.50
2017-07-27T02:46:14.104Z,91.50
2017-07-27T02:48:42.330Z,91.20
2017-07-27T02:51:09.806Z,91.20
2017-07-27T02:53:37.299Z,91.10
2017-07-27T02:56:05.529Z,91.10
2017-07-27T02:58:32.991Z,91.10
2017-07-27T03:01:00.457Z,91.10
2017-07-27T03:03:28.061Z,91.20
2017-07-27T03:05:55.522Z,91.30
2017-07-27T03:08:22.983Z,91.30
2017-07-27T03:10:50.459Z,91.30
2017-07-27T03:13:18.928Z,91.20
2017-07-27T03:15:46.411Z,91.20
2017-07-27T03:18:13.874Z,91.20
2017-07-27T03:20:41.337Z,91.20
2017-07-27T03:23:08.809Z,91.10
2017-07-27T03:25:36.295Z,91.10
2017-07-27T03:28:03.780Z,91.20
2017-07-27T03:30:31.237Z,90.90
2017-07-27T03:32:58.711Z,90.30
2017-07-27T03:35:26.176Z,90.00
2017-07-27T03:37:53.631Z,89.30
2017-07-27T03:40:21.131Z,89.20
2017-07-27T03:42:48.598Z,88.80
2017-07-27T03:45:16.058Z,88.70
2017-07-27T03:47:43.536Z,86.50
2017-07-27T03:50:11.000Z,85.30
2017-07-27T03:52:38.453Z,84.30
2017-07-27T03:55:05.946Z,84.30
2017-07-27T03:57:33.407Z,84.30
2017-07-27T04:00:00.863Z,83.80
2017-07-27T04:02:28.341Z,84.00
2017-07-27T04:04:55.804Z,84.00
2017-07-27T04:07:23.270Z,83.70
2017-07-27T04:09:50.754Z,83.90
2017-07-27T04:12:18.213Z,84.20
2017-07-27T04:14:45.681Z,85.00
2017-07-27T04:17:13.148Z,84.70
2017-07-27T04:19:40.616Z,85.30
2017-07-27T04:22:08.127Z,86.50
2017-07-27T04:24:35.610Z,85.90
2017-07-27T04:27:03.067Z,84.90
2017-07-27T04:29:30.532Z,84.50
2017-07-27T04:31:58.007Z,84.20
2017-07-27T04:34:25.468Z,84.20
2017-07-27T04:36:53.707Z,83.20
2017-07-27T04:39:21.194Z,83.10
2017-07-27T04:41:48.648Z,83.80
2017-07-27T04:44:16.107Z,83.90
2017-07-27T04:46:44.345Z,83.40
2017-07-27T04:49:11.860Z,83.40
2017-07-27T04:51:39.316Z,83.00
2017-07-27T04:54:06.793Z,83.40
2017-07-27T04:56:34.262Z,83.50
2017-07-27T04:59:01.731Z,83.10
2017-07-27T05:01:29.290Z,83.70
2017-07-27T05:03:56.766Z,83.40
2017-07-27T05:06:24.231Z,83.50
2017-07-27T05:08:51.738Z,83.40
2017-07-27T05:11:19.251Z,83.40
2017-07-27T05:13:46.734Z,83.80
2017-07-27T05:16:14.209Z,83.60
2017-07-27T05:18:41.667Z,84.10
2017-07-27T05:21:09.177Z,84.10
2017-07-27T05:23:37.420Z,84.00
2017-07-27T05:26:04.907Z,83.60
2017-07-27T05:28:33.140Z,83.90
2017-07-27T05:31:00.601Z,83.00
2017-07-27T05:33:28.103Z,83.20
2017-07-27T05:35:56.331Z,83.60
2017-07-27T05:38:23.789Z,83.50
2017-07-27T05:40:51.272Z,82.80
2017-07-27T05:43:18.719Z,82.80
2017-07-27T05:45:46.179Z,83.00
2017-07-27T05:48:14.452Z,81.70
2017-07-27T05:50:41.918Z,81.70
2017-07-27T05:53:09.389Z,81.00
2017-07-27T05:55:36.854Z,80.60
2017-07-27T05:58:05.079Z,79.30
2017-07-27T06:00:32.639Z,79.20
2017-07-27T06:03:00.115Z,79.10
2017-07-27T06:05:27.589Z,79.10
2017-07-27T06:07:55.056Z,79.80
2017-07-27T06:10:22.566Z,79.80
2017-07-27T06:12:50.082Z,79.50
2017-07-27T06:15:17.780Z,80.80
2017-07-27T06:17:45.256Z,79.90
2017-07-27T06:20:12.758Z,78.20
2017-07-27T06:22:40.251Z,77.00
2017-07-27T06:25:07.724Z,76.00
2017-07-27T06:27:35.188Z,75.80
2017-07-27T06:30:02.656Z,76.10
2017-07-27T06:32:30.117Z,75.80
2017-07-27T06:34:57.606Z,75.70
2017-07-27T06:37:25.068Z,76.60
2017-07-27T06:39:52.538Z,77.50
2017-07-27T06:42:20.023Z,77.60
2017-07-27T06:44:47.580Z,78.10
2017-07-27T06:47:15.058Z,78.70
2017-07-27T06:49:42.518Z,79.90
2017-07-27T06:52:09.979Z,78.90
2017-07-27T06:54:38.212Z,78.40
2017-07-27T06:57:05.685Z,78.40
2017-07-27T06:59:33.143Z,78.30
2017-07-27T07:02:00.594Z,78.00
2017-07-27T07:04:28.098Z,77.60
2017-07-27T07:06:56.311Z,76.70
2017-07-27T07:09:23.799Z,77.50
2017-07-27T07:11:54.172Z,76.90
2017-07-27T07:14:21.637Z,77.10
2017-07-27T07:16:49.117Z,76.80
2017-07-27T07:19:16.597Z,76.30
2017-07-27T07:21:44.097Z,75.10
2017-07-27T07:24:11.564Z,73.20
2017-07-27T07:26:39.039Z,72.20
2017-07-27T07:29:06.561Z,69.50
2017-07-27T07:31:34.038Z,69.50
2017-07-27T07:34:01.488Z,68.50
2017-07-27T07:36:29.063Z,68.30
2017-07-27T07:38:56.568Z,69.30
2017-07-27T07:41:24.835Z,70.40
2017-07-27T07:43:53.538Z,70.30
2017-07-27T07:46:21.030Z,70.40
2017-07-27T07:48:49.562Z,70.80
2017-07-27T07:51:17.028Z,72.60
2017-07-27T07:53:44.495Z,72.10
2017-07-27T07:56:11.980Z,72.80
2017-07-27T07:58:39.510Z,72.70
2017-07-27T08:01:07.742Z,73.60
2017-07-27T08:03:35.207Z,73.60
2017-07-27T08:06:02.673Z,73.80
2017-07-27T08:08:30.142Z,71.80
2017-07-27T08:10:57.649Z,70.30
2017-07-27T08:13:25.119Z,70.10
2017-07-27T08:15:52.597Z,70.80
2017-07-27T08:18:20.071Z,70.80
2017-07-27T08:20:47.652Z,70.00
2017-07-27T08:23:15.139Z,69.70
2017-07-27T08:25:42.618Z,68.80
2017-07-27T08:28:10.091Z,69.00
2017-07-27T08:30:37.577Z,68.50
2017-07-27T08:33:05.050Z,70.00
2017-07-27T08:35:32.526Z,69.60
2017-07-27T08:37:59.997Z,68.50
2017-07-27T08:40:27.454Z,69.20
2017-07-27T08:42:54.918Z,67.50
2017-07-27T08:45:22.387Z,67.00
2017-07-27T08:47:49.869Z,67.80
2017-07-27T08:50:17.455Z,67.70
2017-07-27T08:52:44.921Z,68.00
2017-07-27T08:55:12.412Z,66.00
2017-07-27T08:57:39.886Z,65.30
2017-07-27T09:00:08.125Z,66.40
2017-07-27T09:02:35.900Z,66.30
2017-07-27T09:05:03.365Z,66.40
2017-07-27T09:07:30.825Z,66.70
2017-07-27T09:09:58.301Z,64.80
2017-07-27T09:12:26.569Z,62.10
2017-07-27T09:14:54.801Z,63.30
2017-07-27T09:17:22.272Z,63.30
2017-07-27T09:19:49.728Z,63.40
2017-07-27T09:22:17.200Z,63.20
2017-07-27T09:24:44.694Z,63.80
2017-07-27T09:27:13.012Z,65.40
2017-07-27T09:29:40.510Z,62.60
2017-07-27T09:32:08.749Z,64.40
2017-07-27T09:34:36.219Z,64.20
2017-07-27T09:37:03.708Z,63.30
2017-07-27T09:39:31.203Z,62.90
2017-07-27T09:41:58.651Z,64.00
2017-07-27T09:44:26.137Z,64.10
2017-07-27T09:46:53.596Z,64.80
2017-07-27T09:49:21.072Z,63.80
2017-07-27T09:51:49.392Z,64.50
2017-07-27T09:54:16.864Z,64.40
2017-07-27T09:56:44.333Z,65.30
2017-07-27T09:59:11.872Z,64.40
2017-07-27T10:01:39.329Z,63.50
2017-07-27T10:04:06.803Z,63.40
2017-07-27T10:06:34.287Z,61.50
2017-07-27T10:09:01.739Z,61.40
2017-07-27T10:11:29.209Z,61.30
2017-07-27T10:13:57.464Z,60.90
2017-07-27T10:16:24.934Z,60.90
2017-07-27T10:18:52.401Z,61.10
2017-07-27T10:21:19.875Z,63.60
2017-07-27T10:23:47.335Z,61.10
2017-07-27T10:26:14.800Z,60.90
2017-07-27T10:28:42.268Z,60.40
2017-07-27T10:31:09.732Z,59.90
2017-07-27T10:33:37.187Z,58.80
2017-07-27T10:36:04.667Z,58.50
2017-07-27T10:38:32.130Z,59.30
2017-07-27T10:40:59.599Z,61.60
2017-07-27T10:43:27.073Z,61.20
2017-07-27T10:45:54.526Z,59.60
2017-07-27T10:48:21.997Z,61.10
2017-07-27T10:50:49.470Z,59.20
2017-07-27T10:53:16.930Z,58.00
2017-07-27T10:55:44.392Z,58.20
2017-07-27T10:58:11.885Z,59.00
2017-07-27T11:00:39.352Z,58.90
2017-07-27T11:03:06.859Z,59.30
2017-07-27T11:05:34.359Z,59.30
2017-07-27T11:08:01.837Z,58.70
2017-07-27T11:10:30.076Z,58.80
2017-07-27T11:12:57.555Z,58.80
2017-07-27T11:15:25.016Z,57.90
2017-07-27T11:17:52.484Z,58.70
2017-07-27T11:20:19.942Z,58.50
2017-07-27T11:22:47.428Z,58.40
2017-07-27T11:25:14.887Z,58.70
2017-07-27T11:27:42.365Z,59.40
2017-07-27T11:30:09.851Z,59.00
2017-07-27T11:32:37.318Z,58.60
2017-07-27T11:35:04.793Z,58.70
2017-07-27T11:37:32.249Z,58.40
2017-07-27T11:39:59.707Z,58.10
2017-07-27T11:42:27.183Z,58.00
2017-07-27T11:44:54.651Z,57.60
2017-07-27T11:47:22.125Z,57.10
2017-07-27T11:49:49.624Z,56.70
2017-07-27T11:52:17.847Z,58.20
2017-07-27T11:54:45.323Z,58.20
2017-07-27T11:57:12.815Z,56.30
2017-07-27T11:59:40.278Z,56.30
2017-07-27T12:02:07.765Z,57.10
2017-07-27T12:04:35.256Z,56.20
2017-07-27T12:07:02.728Z,56.90
2017-07-27T12:09:30.192Z,54.90
2017-07-27T12:11:58.428Z,54.50
2017-07-27T12:14:25.887Z,54.40
2017-07-27T12:16:53.375Z,55.70
2017-07-27T12:19:21.684Z,57.00
2017-07-27T12:21:49.145Z,56.50
2017-07-27T12:24:16.610Z,54.90
2017-07-27T12:26:44.094Z,55.40
2017-07-27T12:29:11.573Z,56.00
2017-07-27T12:31:39.036Z,56.90
2017-07-27T12:34:06.544Z,57.50
2017-07-27T12:36:34.039Z,58.40
2017-07-27T12:39:01.501Z,59.00
2017-07-27T12:41:29.020Z,59.60
2017-07-27T12:43:56.496Z,59.30
2017-07-27T12:46:23.976Z,59.20
2017-07-27T12:48:52.219Z,60.30
2017-07-27T12:51:19.696Z,60.20
2017-07-27T12:53:47.161Z,59.80
2017-07-27T12:56:15.423Z,56.00
2017-07-27T12:58:42.897Z,55.90
2017-07-27T13:01:10.368Z,53.80
2017-07-27T13:03:38.600Z,52.50
2017-07-27T13:06:06.067Z,52.50
2017-07-27T13:08:33.539Z,52.90
2017-07-27T13:11:01.012Z,52.10
2017-07-27T13:13:28.477Z,51.20
2017-07-27T13:15:55.962Z,52.00
2017-07-27T13:18:23.440Z,52.70
2017-07-27T13:20:50.899Z,51.70
2017-07-27T13:23:18.352Z,52.00
2017-07-27T13:25:45.830Z,52.40
2017-07-27T13:28:13.306Z,52.40
2017-07-27T13:30:40.790Z,53.20
2017-07-27T13:33:08.263Z,52.80
2017-07-27T13:35:35.741Z,53.60
2017-07-27T13:38:03.218Z,53.50
2017-07-27T13:40:30.688Z,54.50
2017-07-27T13:42:58.912Z,49.20
2017-07-27T13:45:26.384Z,49.20
2017-07-27T13:47:53.876Z,50.30
2017-07-27T13:50:22.145Z,51.90
2017-07-27T13:52:50.385Z,51.60
2017-07-27T13:55:17.864Z,51.50
2017-07-27T13:57:45.388Z,52.10
2017-07-27T14:00:12.856Z,52.50
2017-07-27T14:02:40.363Z,52.40
2017-07-27T14:05:07.848Z,51.40
2017-07-27T14:07:35.331Z,51.20
2017-07-27T14:10:02.866Z,49.80
2017-07-27T14:12:30.334Z,50.80
2017-07-27T14:14:57.811Z,49.70
2017-07-27T14:17:25.295Z,49.30
2017-07-27T14:19:53.540Z,49.00
2017-07-27T14:22:21.040Z,49.00
2017-07-27T14:24:48.502Z,48.20
2017-07-27T14:27:16.009Z,47.90
2017-07-27T14:29:43.546Z,48.20
2017-07-27T14:32:10.998Z,48.50
2017-07-27T14:34:38.471Z,48.80
2017-07-27T14:37:05.961Z,50.80
2017-07-27T14:39:33.431Z,51.60
2017-07-27T14:42:01.657Z,52.20
2017-07-27T14:44:29.131Z,52.20
2017-07-27T14:46:56.608Z,50.10
2017-07-27T14:49:24.090Z,50.20
2017-07-27T14:51:51.555Z,50.80
2017-07-27T14:54:19.010Z,51.00
2017-07-27T14:56:47.245Z,49.80
2017-07-27T14:59:15.840Z,49.20
2017-07-27T15:01:43.317Z,49.70
2017-07-27T15:04:10.892Z,48.90
2017-07-27T15:06:38.351Z,46.60
2017-07-27T15:09:05.868Z,47.80
2017-07-27T15:11:34.099Z,49.20
2017-07-27T15:14:01.568Z,49.10
2017-07-27T15:16:29.035Z,50.00
2017-07-27T15:18:56.517Z,49.10
2017-07-27T15:21:24.016Z,47.90
2017-07-27T15:23:51.500Z,48.00
2017-07-27T15:26:19.048Z,47.20
2017-07-27T15:28:46.497Z,47.90
2017-07-27T15:31:13.959Z,47.00
2017-07-27T15:33:41.435Z,46.50
2017-07-27T15:36:08.981Z,47.20
2017-07-27T15:38:36.446Z,47.60
2017-07-27T15:41:03.926Z,47.30
2017-07-27T15:43:32.166Z,46.00
2017-07-27T15:45:59.683Z,46.00
2017-07-27T15:48:27.190Z,46.60
2017-07-27T15:50:54.668Z,46.20
2017-07-27T15:53:22.123Z,46.10
2017-07-27T15:55:50.407Z,47.80
2017-07-27T15:58:18.633Z,48.10
2017-07-27T16:00:46.183Z,48.40
2017-07-27T16:03:13.686Z,47.50
2017-07-27T16:05:41.977Z,47.30
2017-07-27T16:08:10.246Z,47.50
2017-07-27T16:10:37.784Z,47.50
2017-07-27T16:13:05.253Z,47.30
2017-07-27T16:15:32.789Z,47.20
2017-07-27T16:18:00.295Z,47.10
2017-07-27T16:20:27.789Z,48.50
2017-07-27T16:22:55.311Z,49.00
2017-07-27T16:25:22.893Z,47.90
2017-07-27T16:27:50.361Z,47.80
2017-07-27T16:30:18.179Z,47.10
2017-07-27T16:32:45.645Z,47.80
2017-07-27T16:35:13.160Z,49.00
2017-07-27T16:37:40.645Z,48.90
2017-07-27T16:40:08.908Z,49.20
2017-07-27T16:42:36.375Z,49.10
2017-07-27T16:45:03.840Z,49.10
2017-07-27T16:47:32.068Z,50.30
2017-07-27T16:49:59.599Z,50.20
2017-07-27T16:52:27.083Z,49.60
2017-07-27T16:54:54.592Z,48.80
2017-07-27T16:57:22.080Z,49.60
2017-07-27T16:59:49.590Z,51.00
2017-07-27T17:02:17.074Z,52.00
2017-07-27T17:04:44.557Z,52.20
2017-07-27T17:07:12.048Z,53.50
2017-07-27T17:09:40.225Z,54.50
2017-07-27T17:12:07.773Z,55.30
2017-07-27T17:14:35.247Z,55.60
2017-07-27T17:17:02.707Z,55.80
2017-07-27T17:19:31.006Z,56.50
2017-07-27T17:21:58.514Z,55.90
2017-07-27T17:24:25.991Z,56.20
2017-07-27T17:26:53.471Z,56.60
2017-07-27T17:29:21.707Z,55.40
2017-07-27T17:31:49.165Z,55.40
2017-07-27T17:34:16.646Z,55.20
2017-07-27T17:36:44.128Z,56.50
2017-07-27T17:39:11.609Z,56.90
2017-07-27T17:41:39.102Z,57.70
2017-07-27T17:44:06.594Z,58.60
2017-07-27T17:46:34.090Z,58.90
2017-07-27T17:51:35.345Z,58.10
2017-07-27T17:54:02.832Z,57.60
2017-07-27T17:56:30.303Z,58.10
2017-07-27T17:58:58.544Z,57.60
2017-07-27T18:01:26.116Z,57.30
2017-07-27T18:03:53.612Z,57.70
2017-07-27T18:06:21.195Z,58.00
2017-07-27T18:08:48.701Z,58.70
2017-07-27T18:11:16.179Z,59.20
2017-07-27T18:13:43.673Z,59.50
2017-07-27T18:16:11.144Z,60.00
2017-07-27T18:18:38.616Z,60.30
2017-07-27T18:21:06.103Z,60.70
2017-07-27T18:23:34.352Z,59.70
2017-07-27T18:26:01.832Z,59.60
2017-07-27T18:28:30.426Z,59.00
2017-07-27T18:30:57.902Z,59.00
2017-07-27T18:33:25.380Z,59.20
2017-07-27T18:35:52.888Z,59.30
2017-07-27T18:38:20.372Z,59.20
2017-07-27T18:40:47.852Z,59.40
2017-07-27T18:43:15.380Z,59.90
2017-07-27T18:45:42.840Z,59.80
2017-07-27T18:48:10.296Z,60.30
2017-07-27T18:50:37.767Z,60.00
2017-07-27T18:53:05.250Z,60.30
2017-07-27T18:55:32.709Z,59.90
2017-07-27T18:58:00.196Z,59.90
2017-07-27T19:00:28.491Z,58.30
2017-07-27T19:02:55.953Z,58.30
2017-07-27T19:05:23.433Z,58.70
2017-07-27T19:07:50.906Z,59.10
2017-07-27T19:10:18.374Z,59.60
2017-07-27T19:12:45.857Z,60.00
2017-07-27T19:15:14.101Z,61.00
2017-07-27T19:17:41.591Z,61.00
2017-07-27T19:20:09.115Z,61.70
2017-07-27T19:22:36.664Z,62.20
2017-07-27T19:25:04.165Z,62.90
2017-07-27T19:27:31.736Z,63.40
2017-07-27T19:29:59.256Z,63.90
2017-07-27T19:32:26.736Z,63.70
2017-07-27T19:34:55.016Z,64.40
2017-07-27T19:37:22.520Z,64.40
2017-07-27T19:39:50.008Z,64.10
2017-07-27T19:42:17.481Z,63.70
2017-07-27T19:44:46.161Z,63.10
2017-07-27T19:47:16.429Z,62.80
2017-07-27T19:49:44.020Z,62.60
2017-07-27T19:52:15.186Z,62.80
2017-07-27T19:54:43.587Z,62.80
2017-07-27T19:57:11.859Z,62.20
2017-07-27T19:59:39.327Z,62.10
2017-07-27T20:02:06.810Z,61.80
2017-07-27T20:04:34.890Z,62.00
2017-07-27T20:07:02.376Z,62.80
2017-07-27T20:09:31.250Z,63.60
2017-07-27T20:11:58.792Z,64.50
2017-07-27T20:14:27.223Z,65.50
2017-07-27T20:16:58.142Z,66.80
2017-07-27T20:19:28.767Z,67.70
2017-07-27T20:21:58.524Z,68.70
2017-07-27T20:24:26.023Z,69.20
2017-07-27T20:26:54.669Z,69.80
2017-07-27T20:29:24.539Z,70.10
2017-07-27T20:31:52.487Z,70.80
2017-07-27T20:34:21.697Z,71.20
2017-07-27T20:36:49.440Z,71.40
2017-07-27T20:39:16.928Z,71.60
2017-07-27T20:41:44.532Z,72.10
2017-07-27T20:44:12.008Z,72.10
2017-07-27T20:46:40.172Z,72.10
2017-07-27T20:49:07.677Z,72.20
2017-07-27T20:51:35.913Z,72.90
2017-07-27T20:54:03.382Z,72.80
2017-07-27T20:56:30.870Z,73.20
2017-07-27T20:58:59.122Z,73.70
2017-07-27T21:01:26.643Z,73.60
2017-07-27T21:03:54.117Z,73.50
2017-07-27T21:06:21.612Z,73.30
2017-07-27T21:08:49.101Z,73.60
2017-07-27T21:11:16.633Z,73.20
2017-07-27T21:13:45.021Z,72.00
2017-07-27T21:16:12.655Z,72.00
2017-07-27T21:18:40.131Z,72.00
2017-07-27T21:21:07.651Z,72.30
2017-07-27T21:23:35.112Z,72.40
2017-07-27T21:26:02.616Z,72.50
2017-07-27T21:28:30.083Z,72.60
2017-07-27T21:30:57.556Z,72.50
2017-07-27T21:33:25.326Z,72.70
2017-07-27T21:35:52.815Z,72.30
2017-07-27T21:38:20.288Z,72.50
2017-07-27T21:40:48.524Z,72.60
2017-07-27T21:43:15.999Z,72.60
2017-07-27T21:45:43.494Z,72.50
2017-07-27T21:48:10.986Z,72.70
2017-07-27T21:50:38.494Z,72.70
2017-07-27T21:53:05.989Z,72.60
2017-07-27T21:55:33.472Z,72.70
2017-07-27T21:58:00.962Z,72.90
2017-07-27T22:00:29.213Z,73.30
2017-07-27T22:02:56.707Z,73.30
2017-07-27T22:05:24.211Z,73.50
2017-07-27T22:07:51.680Z,73.50
2017-07-27T22:10:19.156Z,73.80
2017-07-27T22:12:46.610Z,73.70
2017-07-27T22:15:14.091Z,74.30
2017-07-27T22:17:42.335Z,74.70
2017-07-27T22:20:09.837Z,74.50
2017-07-27T22:22:37.318Z,74.80
2017-07-27T22:25:04.828Z,75.50
2017-07-27T22:27:33.113Z,76.50
2017-07-27T22:30:01.357Z,76.00
2017-07-27T22:32:28.843Z,75.90
2017-07-27T22:34:57.087Z,76.30
2017-07-27T22:37:24.565Z,76.20
2017-07-27T22:39:52.827Z,77.10
2017-07-27T22:42:20.349Z,77.10
2017-07-27T22:44:47.829Z,77.60
2017-07-27T22:47:15.306Z,78.00
2017-07-27T22:49:43.570Z,78.50
2017-07-27T22:52:11.087Z,78.50
2017-07-27T22:54:38.580Z,79.40
2017-07-27T22:57:06.056Z,81.40
2017-07-27T22:59:33.578Z,81.90
2017-07-27T23:02:01.048Z,82.40
2017-07-27T23:04:28.526Z,83.40
2017-07-27T23:06:55.984Z,84.20
2017-07-27T23:09:24.223Z,83.60
2017-07-27T23:11:51.743Z,83.60
2017-07-27T23:14:19.204Z,83.80
2017-07-27T23:16:46.731Z,83.40
2017-07-27T23:19:14.210Z,83.90
2017-07-27T23:21:41.709Z,84.00
2017-07-27T23:24:09.200Z,83.90
2017-07-27T23:26:37.454Z,83.50
2017-07-27T23:29:04.919Z,83.50
2017-07-27T23:31:32.513Z,83.30
2017-07-27T23:34:00.768Z,84.00
2017-07-27T23:36:29.008Z,83.00
2017-07-27T23:38:56.515Z,83.00
2017-07-27T23:41:23.979Z,83.80
2017-07-27T23:43:51.487Z,84.70
2017-07-27T23:46:18.971Z,85.60
2017-07-27T23:48:46.446Z,87.00
2017-07-27T23:51:13.937Z,86.60
2017-07-27T23:53:41.426Z,86.10
2017-07-27T23:56:08.892Z,86.10
2017-07-27T23:58:36.361Z,86.70
